FR2371 / EI-DWR 7700 Squawk Report (18th of October, 2019)

Aircraft B738 Reg No. EI-DWR Age 12 years old
Model 737 Jet engines 2 First flight 13-11-07
Registered 29-11-07 Rollout 05-11-07 Delivered 29-11-07
Construction No. 36081 Line No. 2448 Series 8AS
ADSHEX 4CA61E Airline name Ryanair Owner N/A
Airfield based Dublin~Co Dublin~EI First tracked 2017-07-13 07:12:00

Flight history for EI-DWR

Route Flight No Date Playback
Stansted (STN) - Nuremberg (NUE) FR8117 2019-11-21 21:08:00
Václav Havel Airport Prague (PRG) - Stansted (STN) FR1745 2019-11-21 19:40:00
Stansted (STN) - Václav Havel Airport Prague (PRG) FR1744 2019-11-21 16:08:00
Gardermoen (OSL) - Stansted (STN) FR1319 2019-11-21 11:02:00
Stansted (STN) - Gardermoen (OSL) FR1318 2019-11-21 08:15:00
Krakow John Paul I (KRK) - Stansted (STN) FR2437 2019-11-21 06:27:00
Stansted (STN) - Krakow John Paul I (KRK) FR2436 2019-11-20 21:18:00
Kerry (KIR) - Stansted (STN) FR702 2019-11-20 18:24:00
Barajas (MAD) - Santiago (SCQ) FR5315 2019-11-20 16:18:00
Venezia Tessera (VCE) - Stansted (STN) FR793 2019-11-20 14:22:00
Stansted (STN) - Venezia Tessera (VCE) FR792 2019-11-20 08:53:00
Budapest Ferenc Liszt (BUD) - Stansted (STN) FR8369 2019-11-19 22:43:00
Stansted (STN) - Budapest Ferenc Liszt (BUD) FR8371 2019-11-19 20:26:00
Ireland West Knock (NOC) - Stansted (STN) FR806 2019-11-19 17:40:00
Stansted (STN) - Ireland West Knock (NOC) FR805 2019-11-19 09:51:00
Sofia (SOF) - Stansted (STN) FR1731 2019-11-19 07:58:00
Stansted (STN) - Sofia (SOF) FR1730 2019-11-18 18:11:00
Sofia (SOF) - Stansted (STN) FR9962 2019-11-18 13:08:00
Stansted (STN) - Sofia (SOF) FR9961 2019-11-18 09:46:00
Lech Walesa (GDN) - Stansted (STN) FR2373 2019-11-18 06:40:00
Time Lat Lon Altitude Heading Speed Vertical Rate
2019-10-18 10:06:35 GMT 53.431892 -6.248396 0 95 17 0
2019-10-18 10:06:28 GMT 53.431938 -6.249200 0 95 17 0
2019-10-18 10:06:10 GMT 53.432064 -6.251593 0 95 17 0
2019-10-18 10:05:58 GMT 53.432087 -6.253079 0 73 17 0
2019-10-18 10:05:48 GMT 53.431831 -6.254109 0 64 10 0
2019-10-18 10:05:37 GMT 53.431606 -6.254811 0 28 10 0
2019-10-18 10:05:27 GMT 53.431103 -6.254693 0 337 16 0
2019-10-18 10:05:17 GMT 53.430332 -6.254129 0 337 20 0
2019-10-18 10:05:05 GMT 53.429306 -6.253398 0 337 18 0
2019-10-18 10:04:55 GMT 53.428642 -6.252917 0 337 15 0
2019-10-18 10:04:43 GMT 53.427841 -6.252771 0 30 17 0
2019-10-18 10:04:35 GMT 53.427361 -6.253536 0 47 20 0
2019-10-18 10:04:24 GMT 53.426617 -6.254811 0 45 22 0
2019-10-18 10:04:13 GMT 53.425838 -6.256148 0 45 23 0
2019-10-18 10:04:04 GMT 53.425163 -6.257302 0 45 24 0
2019-10-18 10:03:51 GMT 53.424091 -6.259117 0 45 28 0
2019-10-18 10:03:42 GMT 53.423244 -6.260591 0 47 28 0
2019-10-18 10:03:33 GMT 53.422726 -6.262207 0 78 28 0
2019-10-18 10:03:06 GMT 53.422989 -6.268603 0 95 34 0
2019-10-18 10:02:51 GMT 53.423183 -6.272305 0 95 33 0
2019-10-18 10:02:39 GMT 53.423359 -6.275395 0 95 32 0
2019-10-18 10:01:08 GMT 53.420837 -6.260951 775 276 130 0
2019-10-18 10:01:05 GMT 53.420654 -6.257656 775 276 134 -64
2019-10-18 10:00:57 GMT 53.420151 -6.249023 850 276 146 -768
2019-10-18 10:00:46 GMT 53.419483 -6.236761 1,000 276 147 -768
2019-10-18 10:00:36 GMT 53.418823 -6.225246 1,125 275 147 -768
2019-10-18 10:00:26 GMT 53.418182 -6.213239 1,275 276 146 -768
2019-10-18 10:00:16 GMT 53.417587 -6.201939 1,400 276 147 -832
2019-10-18 10:00:05 GMT 53.416946 -6.189933 1,550 276 149 -832
2019-10-18 09:59:54 GMT 53.416271 -6.177467 1,700 275 151 -896
2019-10-18 09:59:44 GMT 53.415527 -6.164542 1,850 276 159 -704
2019-10-18 09:59:32 GMT 53.414658 -6.149440 2,025 276 168 -960
2019-10-18 09:59:24 GMT 53.414062 -6.138532 2,150 276 172 -960
2019-10-18 09:59:12 GMT 53.413239 -6.123701 2,325 276 173 -832
2019-10-18 09:59:03 GMT 53.412457 -6.110822 2,500 277 175 -1024
2019-10-18 09:58:51 GMT 53.411385 -6.095554 2,650 278 178 -832
2019-10-18 09:58:44 GMT 53.410686 -6.086183 2,775 277 180 -960
2019-10-18 09:58:41 GMT 53.410400 -6.081796 2,825 276 181 -1088
2019-10-18 09:58:37 GMT 53.410034 -6.075520 2,900 275 181 -1152
2019-10-18 09:58:34 GMT 53.409897 -6.072144 2,950 274 180 -1216
2019-10-18 09:58:31 GMT 53.409706 -6.067604 3,000 272 179 -1024
2019-10-18 09:58:27 GMT 53.409615 -6.060656 3,100 268 179 -832
2019-10-18 09:58:20 GMT 53.410034 -6.052604 3,150 262 180 -960
2019-10-18 09:58:13 GMT 53.411316 -6.042559 3,300 256 180 -960
2019-10-18 09:58:10 GMT 53.411942 -6.038441 3,350 256 180 -768
2019-10-18 09:58:03 GMT 53.413479 -6.028667 3,425 257 185 -512
2019-10-18 09:57:59 GMT 53.414131 -6.024062 3,450 257 186 -512
2019-10-18 09:57:56 GMT 53.415070 -6.017683 3,500 256 186 -768
2019-10-18 09:57:52 GMT 53.415668 -6.013722 3,550 256 186 -832
2019-10-18 09:57:49 GMT 53.416351 -6.009365 3,575 256 187 -832
2019-10-18 09:57:43 GMT 53.417950 -5.999262 3,700 256 186 -896
2019-10-18 09:57:39 GMT 53.418686 -5.994455 3,750 256 185 -960
2019-10-18 09:57:34 GMT 53.419483 -5.989164 3,800 256 185 -896
2019-10-18 09:57:31 GMT 53.420242 -5.984331 3,850 256 186 -896
2019-10-18 09:57:28 GMT 53.420925 -5.979875 3,900 256 186 -896
2019-10-18 09:57:24 GMT 53.421707 -5.974836 3,950 256 186 -896
2019-10-18 09:57:21 GMT 53.422417 -5.970181 4,000 256 186 -896
2019-10-18 09:57:18 GMT 53.423172 -5.965419 4,050 256 187 -896
2019-10-18 09:57:15 GMT 53.423813 -5.961260 4,100 256 187 -832
2019-10-18 09:57:10 GMT 53.424728 -5.955688 4,175 256 188 -832
2019-10-18 09:57:07 GMT 53.425442 -5.950874 4,200 256 189 -832
2019-10-18 09:57:04 GMT 53.426102 -5.946586 4,250 256 189 -832
2019-10-18 09:56:57 GMT 53.427864 -5.935364 4,350 256 190 -896
2019-10-18 09:56:54 GMT 53.428375 -5.931809 4,400 256 191 -896
2019-10-18 09:56:48 GMT 53.429581 -5.923828 4,475 256 192 -832
2019-10-18 09:56:43 GMT 53.430611 -5.916865 4,550 256 194 -832
2019-10-18 09:56:37 GMT 53.431961 -5.908055 4,625 256 195 -832
2019-10-18 09:56:33 GMT 53.432892 -5.902001 4,675 256 195 -896
2019-10-18 09:56:28 GMT 53.433975 -5.894793 4,775 256 196 -896
2019-10-18 09:56:25 GMT 53.434753 -5.889535 4,800 256 197 -896
2019-10-18 09:56:22 GMT 53.435310 -5.886087 4,850 256 198 -896
2019-10-18 09:56:15 GMT 53.437035 -5.874616 4,950 256 200 -960
2019-10-18 09:56:12 GMT 53.437500 -5.871465 5,000 256 201 -960
2019-10-18 09:56:05 GMT 53.439423 -5.859009 5,125 256 204 -960
2019-10-18 09:56:00 GMT 53.440384 -5.852731 5,175 256 205 -896
2019-10-18 09:55:57 GMT 53.441208 -5.847159 5,250 256 207 -832
2019-10-18 09:55:54 GMT 53.441875 -5.842869 5,275 256 208 -640
2019-10-18 09:55:46 GMT 53.443726 -5.831072 5,325 256 215 -256
2019-10-18 09:55:43 GMT 53.444622 -5.825500 5,350 256 217 -320
2019-10-18 09:55:35 GMT 53.446564 -5.813023 5,400 256 219 -640
2019-10-18 09:55:32 GMT 53.447296 -5.808158 5,450 256 220 -640
2019-10-18 09:55:26 GMT 53.449184 -5.796015 5,525 256 224 -704
2019-10-18 09:55:23 GMT 53.449696 -5.792622 5,550 256 224 -704
2019-10-18 09:55:12 GMT 53.452515 -5.774257 5,675 256 229 -704
2019-10-18 09:55:04 GMT 53.455399 -5.755737 5,800 256 233 -640
2019-10-18 09:54:52 GMT 53.458450 -5.736479 5,950 256 236 -960
2019-10-18 09:54:42 GMT 53.461056 -5.719676 6,125 256 237 -960
2019-10-18 09:54:37 GMT 53.462032 -5.713214 6,150 256 237 -1024
2019-10-18 09:54:32 GMT 53.463364 -5.704572 6,250 256 237 -1216
2019-10-18 09:54:29 GMT 53.464314 -5.698108 6,325 256 237 -1216
2019-10-18 09:54:23 GMT 53.465881 -5.687465 6,425 257 237 -1024
2019-10-18 09:54:20 GMT 53.467484 -5.676557 6,650 257 237 -1152
2019-10-18 09:54:17 GMT 53.469250 -5.664260 6,625 257 240 -768
2019-10-18 09:54:11 GMT 53.469250 -5.664260 6,700 257 243 -576
2019-10-18 09:54:06 GMT 53.470367 -5.656828 6,675 257 247 -640
2019-10-18 09:54:00 GMT 53.472015 -5.645560 6,750 257 249 -640
2019-10-18 09:53:51 GMT 53.474323 -5.629685 6,875 255 254 -576
2019-10-18 09:53:48 GMT 53.475494 -5.622881 6,850 253 255 -576
2019-10-18 09:53:44 GMT 53.477005 -5.615348 6,900 251 257 -576
2019-10-18 09:53:40 GMT 53.478928 -5.606559 6,950 250 261 -704
2019-10-18 09:53:35 GMT 53.480701 -5.598584 7,000 250 263 -704
2019-10-18 09:53:29 GMT 53.483322 -5.586548 7,050 250 267 -576
2019-10-18 09:53:25 GMT 53.484844 -5.579762 7,100 250 272 -576
2019-10-18 09:53:19 GMT 53.489826 -5.557305 7,175 250 332 -1152
2019-10-18 09:53:15 GMT 53.489826 -5.557305 7,225 250 279 -832
2019-10-18 09:53:08 GMT 53.492573 -5.544945 7,300 250 282 -768
2019-10-18 09:53:05 GMT 53.493874 -5.539048 7,350 250 285 -768
2019-10-18 09:52:58 GMT 53.497272 -5.523538 7,400 250 292 -704
2019-10-18 09:52:54 GMT 53.498997 -5.515783 7,475 250 298 -768
2019-10-18 09:52:48 GMT 53.502411 -5.500384 7,550 250 298 -832
2019-10-18 09:52:44 GMT 53.503742 -5.494214 7,925 250 320 -768
2019-10-18 09:52:37 GMT 53.507191 -5.478543 7,700 250 308 -832
2019-10-18 09:52:33 GMT 53.509186 -5.469622 7,750 250 310 -832
2019-10-18 09:52:27 GMT 53.512356 -5.455116 7,850 250 315 -704
2019-10-18 09:52:20 GMT 53.515896 -5.439121 7,925 250 320 -768
2019-10-18 09:52:17 GMT 53.517700 -5.430777 7,975 250 326 -1024
2019-10-18 09:52:14 GMT 53.519028 -5.424813 8,025 250 328 -1024
2019-10-18 09:52:07 GMT 53.523102 -5.406451 8,175 250 334 -1280
2019-10-18 09:52:04 GMT 53.524414 -5.400588 8,225 250 335 -1536
2019-10-18 09:52:01 GMT 53.525623 -5.395176 8,275 250 336 -1792
2019-10-18 09:51:56 GMT 53.530140 -5.374738 8,500 250 340 -1984
2019-10-18 09:51:50 GMT 53.531628 -5.367952 8,650 250 342 -2048
2019-10-18 09:51:45 GMT 53.536610 -5.345091 8,975 250 343 -2304
2019-10-18 09:51:41 GMT 53.536610 -5.345091 8,975 250 343 -2368
2019-10-18 09:51:34 GMT 53.540287 -5.328288 9,250 250 345 -2560
2019-10-18 09:51:31 GMT 53.542419 -5.318481 9,425 250 345 -2496
2019-10-18 09:51:25 GMT 53.546036 -5.301845 9,700 250 346 -2560
2019-10-18 09:51:20 GMT 53.548096 -5.292428 9,850 250 347 -2496
2019-10-18 09:51:14 GMT 53.551666 -5.276184 10,200 250 348 -2624
2019-10-18 09:51:10 GMT 53.553818 -5.266139 10,300 250 349 -2624
2019-10-18 09:51:05 GMT 53.557938 -5.247306 10,675 250 350 -2560
2019-10-18 09:50:59 GMT 53.560043 -5.237653 10,775 250 350 -2560
2019-10-18 09:50:53 GMT 53.563065 -5.223764 11,100 251 351 -2560
2019-10-18 09:50:50 GMT 53.566635 -5.207206 11,400 251 353 -2432
2019-10-18 09:50:42 GMT 53.571056 -5.186759 11,575 251 353 -2432
2019-10-18 09:50:39 GMT 53.571056 -5.186759 11,600 251 353 -2496
2019-10-18 09:50:35 GMT 53.572998 -5.177856 12,000 251 354 -2560
2019-10-18 09:50:32 GMT 53.575378 -5.166556 12,075 251 355 -2496
2019-10-18 09:50:28 GMT 53.576782 -5.159939 12,050 251 355 -2560
2019-10-18 09:50:23 GMT 53.579857 -5.145641 12,325 251 357 -2496
2019-10-18 09:50:20 GMT 53.582047 -5.135462 12,425 251 358 -2496
2019-10-18 09:50:14 GMT 53.587006 -5.112017 12,725 251 359 -2560
2019-10-18 09:50:10 GMT 53.587006 -5.112017 12,900 251 359 -2560
2019-10-18 09:50:07 GMT 53.588840 -5.103392 12,950 251 360 -2496
2019-10-18 09:50:03 GMT 53.591537 -5.090594 13,150 251 362 -2496
2019-10-18 09:50:00 GMT 53.592407 -5.086513 13,225 251 363 -2496
2019-10-18 09:49:57 GMT 53.594238 -5.077959 13,300 251 362 -2496
2019-10-18 09:49:53 GMT 53.596298 -5.068229 13,500 251 363 -2560
2019-10-18 09:49:50 GMT 53.598404 -5.058498 13,625 251 364 -2560
2019-10-18 09:49:47 GMT 53.599827 -5.051611 13,750 251 364 -2496
2019-10-18 09:49:43 GMT 53.602295 -5.040057 14,050 251 366 -2432
2019-10-18 09:49:40 GMT 53.604034 -5.031974 14,050 251 366 -2432
2019-10-18 09:49:37 GMT 53.605553 -5.025114 14,175 251 366 -2496
2019-10-18 09:49:33 GMT 53.607971 -5.013925 14,350 250 368 -2496
2019-10-18 09:49:30 GMT 53.609928 -5.004838 14,575 250 369 -2496
2019-10-18 09:49:27 GMT 53.611679 -4.996817 14,625 250 369 -2496
2019-10-18 09:49:23 GMT 53.613831 -4.987087 14,850 250 370 -2432
2019-10-18 09:49:20 GMT 53.615841 -4.978099 14,850 250 371 -2304
2019-10-18 09:49:17 GMT 53.617748 -4.969536 15,050 249 375 -1408
2019-10-18 09:49:12 GMT 53.621201 -4.954442 15,200 249 375 -1472
2019-10-18 09:49:06 GMT 53.624641 -4.939728 15,300 249 377 -960
2019-10-18 09:48:59 GMT 53.628845 -4.922189 15,400 248 379 -768
2019-10-18 09:48:56 GMT 53.630951 -4.913635 15,425 248 379 -704
2019-10-18 09:48:53 GMT 53.633251 -4.904345 15,475 248 379 -704
2019-10-18 09:48:50 GMT 53.635300 -4.896186 15,500 247 378 -640
2019-10-18 09:48:47 GMT 53.637451 -4.887739 15,550 247 376 -640
2019-10-18 09:48:44 GMT 53.639118 -4.881161 15,550 247 376 -640
2019-10-18 09:48:41 GMT 53.641632 -4.871386 15,775 247 375 -1088
2019-10-18 09:48:38 GMT 53.643681 -4.863389 15,650 247 375 -960
2019-10-18 09:48:35 GMT 53.645325 -4.856899 15,775 248 374 -1792
2019-10-18 09:48:31 GMT 53.647934 -4.846540 15,775 248 374 -1792
2019-10-18 09:48:28 GMT 53.650314 -4.836731 15,900 250 374 -2880
2019-10-18 09:48:25 GMT 53.652199 -4.828249 16,075 252 373 -3392
2019-10-18 09:48:22 GMT 53.653641 -4.821302 16,550 255 370 -4160
2019-10-18 09:48:19 GMT 53.654945 -4.814193 16,350 256 368 -4416
2019-10-18 09:48:16 GMT 53.657593 -4.797416 17,200 256 367 -4416
2019-10-18 09:48:13 GMT 53.657593 -4.797416 16,850 256 366 -4352
2019-10-18 09:48:10 GMT 53.659149 -4.787214 17,125 256 362 -4288
2019-10-18 09:48:07 GMT 53.661835 -4.769601 17,375 256 359 -4096
2019-10-18 09:48:04 GMT 53.661835 -4.769601 17,575 256 357 -3904
2019-10-18 09:48:00 GMT 53.663040 -4.761867 17,775 256 357 -3904
2019-10-18 09:47:57 GMT 53.665787 -4.743896 19,225 272 353 -2048
2019-10-18 09:47:50 GMT 53.667160 -4.734872 18,350 257 352 -3456
2019-10-18 09:47:46 GMT 53.668808 -4.723415 18,900 258 351 -3392
2019-10-18 09:47:43 GMT 53.669655 -4.716770 18,775 260 350 -3328
2019-10-18 09:47:40 GMT 53.670540 -4.707480 19,075 265 350 -2816
2019-10-18 09:47:35 GMT 53.671146 -4.693666 19,300 272 354 -1984
2019-10-18 09:47:32 GMT 53.671188 -4.686846 19,225 271 352 -2112
2019-10-18 09:47:29 GMT 53.671051 -4.676017 19,400 272 354 -1984
2019-10-18 09:47:26 GMT 53.670818 -4.661030 19,775 272 354 -1984
2019-10-18 09:47:23 GMT 53.670818 -4.661030 19,625 272 354 -2048
2019-10-18 09:47:20 GMT 53.670731 -4.652004 19,675 272 355 -2048
2019-10-18 09:47:16 GMT 53.670586 -4.642855 19,900 272 361 -1984
2019-10-18 09:47:13 GMT 53.670448 -4.632515 19,975 272 356 -1984
2019-10-18 09:47:09 GMT 53.670273 -4.622262 20,250 272 356 -1984
2019-10-18 09:47:05 GMT 53.670120 -4.610865 20,200 272 357 -2112
2019-10-18 09:47:02 GMT 53.669952 -4.599348 20,300 272 358 -2112
2019-10-18 09:46:57 GMT 53.669750 -4.587034 20,475 272 359 -2112
2019-10-18 09:46:54 GMT 53.669632 -4.577532 20,550 272 359 -2112
2019-10-18 09:46:51 GMT 53.669518 -4.571605 20,725 272 366 -2112
2019-10-18 09:46:44 GMT 53.669235 -4.552056 20,900 272 361 -1984
2019-10-18 09:46:41 GMT 53.669052 -4.540827 21,050 272 362 -1984
2019-10-18 09:46:38 GMT 53.668774 -4.522167 21,250 272 374 -2112
2019-10-18 09:46:34 GMT 53.668774 -4.522167 21,350 272 364 -2048
2019-10-18 09:46:31 GMT 53.668533 -4.504081 22,875 272 377 -2112
2019-10-18 09:46:28 GMT 53.668533 -4.504081 21,500 272 366 -2112
2019-10-18 09:46:25 GMT 53.668400 -4.495670 21,625 272 366 -2112
2019-10-18 09:46:22 GMT 53.668304 -4.488965 21,675 272 367 -2112
2019-10-18 09:46:19 GMT 53.668167 -4.481937 21,750 272 367 -2112
2019-10-18 09:46:16 GMT 53.668030 -4.471985 21,925 272 368 -2048
2019-10-18 09:46:11 GMT 53.667801 -4.458723 22,025 272 369 -2112
2019-10-18 09:46:08 GMT 53.667664 -4.451425 22,150 272 376 -2176
2019-10-18 09:46:03 GMT 53.667374 -4.435165 22,450 272 374 -2112
2019-10-18 09:46:00 GMT 53.667236 -4.427329 22,425 272 372 -2176
2019-10-18 09:45:57 GMT 53.667095 -4.420220 22,525 272 374 -2112
2019-10-18 09:45:54 GMT 53.666958 -4.410688 22,850 272 373 -2176
2019-10-18 09:45:51 GMT 53.666794 -4.401123 23,000 272 374 -2112
2019-10-18 09:45:47 GMT 53.666584 -4.388957 22,875 272 376 -2176
2019-10-18 09:45:44 GMT 53.666428 -4.382132 23,050 272 377 -2112
2019-10-18 09:45:41 GMT 53.666210 -4.370297 23,175 272 377 -2176
2019-10-18 09:45:38 GMT 53.666073 -4.362622 23,525 272 388 -2176
2019-10-18 09:45:34 GMT 53.665924 -4.352940 23,375 272 378 -2112
2019-10-18 09:45:31 GMT 53.665741 -4.342032 23,700 272 381 -2176
2019-10-18 09:45:28 GMT 53.665558 -4.332248 23,700 272 381 -2176
2019-10-18 09:45:23 GMT 53.665325 -4.319162 23,750 272 381 -2240
2019-10-18 09:45:20 GMT 53.665188 -4.310518 23,825 272 381 -2176
2019-10-18 09:45:17 GMT 53.665001 -4.299936 24,300 272 382 -2176
2019-10-18 09:45:14 GMT 53.664814 -4.290565 24,100 272 383 -2176
2019-10-18 09:45:11 GMT 53.664642 -4.280587 24,575 272 386 -2240
2019-10-18 09:45:07 GMT 53.664459 -4.269915 24,325 272 385 -2240
2019-10-18 09:45:04 GMT 53.664322 -4.263715 24,400 272 385 -2240
2019-10-18 09:45:01 GMT 53.664116 -4.250901 24,650 272 387 -2240
2019-10-18 09:44:58 GMT 53.663929 -4.241288 24,750 272 387 -2240
2019-10-18 09:44:55 GMT 53.663837 -4.235229 24,775 272 387 -2240
2019-10-18 09:44:52 GMT 53.663681 -4.226048 24,875 272 388 -2176
2019-10-18 09:44:49 GMT 53.663559 -4.218669 25,100 272 399 -2240
2019-10-18 09:44:46 GMT 53.663326 -4.206552 25,900 272 389 -2240
2019-10-18 09:44:43 GMT 53.663223 -4.198582 25,450 272 390 -2240
2019-10-18 09:44:40 GMT 53.663048 -4.189830 25,450 272 392 -2240
2019-10-18 09:44:37 GMT 53.662857 -4.177630 25,425 272 391 -2176
2019-10-18 09:44:34 GMT 53.662582 -4.160836 25,625 272 392 -2240
2019-10-18 09:44:31 GMT 53.662582 -4.160836 25,725 272 393 -2240
2019-10-18 09:44:28 GMT 53.662395 -4.150651 25,825 272 394 -2176
2019-10-18 09:44:24 GMT 53.662033 -4.127171 26,125 272 395 -2240
2019-10-18 09:44:20 GMT 53.662033 -4.127171 26,100 272 396 -2240
2019-10-18 09:44:17 GMT 53.661835 -4.117207 26,450 272 397 -2304
2019-10-18 09:44:14 GMT 53.661713 -4.109515 26,350 272 396 -2304
2019-10-18 09:44:11 GMT 53.661556 -4.101939 26,600 272 399 -2240
2019-10-18 09:44:08 GMT 53.661392 -4.091387 26,550 272 400 -2240
2019-10-18 09:44:05 GMT 53.661228 -4.082633 26,650 272 398 -2240
2019-10-18 09:44:02 GMT 53.661026 -4.069885 26,800 272 399 -2240
2019-10-18 09:43:57 GMT 53.660706 -4.054740 26,975 272 400 -2240
2019-10-18 09:43:54 GMT 53.660625 -4.048381 27,125 272 401 -2240
2019-10-18 09:43:51 GMT 53.660252 -4.029882 27,250 272 402 -2176
2019-10-18 09:43:48 GMT 53.660252 -4.029882 27,350 272 403 -2176
2019-10-18 09:43:45 GMT 53.660065 -4.019946 27,525 272 404 -2112
2019-10-18 09:43:42 GMT 53.659882 -4.010898 27,475 272 406 -2304
2019-10-18 09:43:39 GMT 53.659695 -4.001689 27,525 272 405 -2112
2019-10-18 09:43:36 GMT 53.659561 -3.993609 27,850 272 406 -2304
2019-10-18 09:43:33 GMT 53.659378 -3.984584 27,750 272 406 -2304
2019-10-18 09:43:30 GMT 53.659103 -3.972185 27,925 272 407 -2496
2019-10-18 09:43:27 GMT 53.658951 -3.963318 28,000 272 407 -2432
2019-10-18 09:43:24 GMT 53.658783 -3.955941 28,075 272 407 -2496
2019-10-18 09:43:21 GMT 53.658344 -3.935287 28,700 277 407 -1600
2019-10-18 09:43:18 GMT 53.658344 -3.935287 28,450 274 407 -2624
2019-10-18 09:43:15 GMT 53.657879 -3.922442 28,600 278 407 -1280
2019-10-18 09:43:12 GMT 53.657646 -3.917999 28,750 277 407 -1664
2019-10-18 09:43:09 GMT 53.656265 -3.896537 28,800 276 422 -1216
2019-10-18 09:43:06 GMT 53.656265 -3.896537 28,825 279 407 -1152
2019-10-18 09:43:03 GMT 53.655132 -3.884313 28,925 280 407 -1088
2019-10-18 09:43:00 GMT 53.654713 -3.880113 29,725 280 416 -960
2019-10-18 09:42:57 GMT 53.653690 -3.869369 28,975 280 407 -1024
2019-10-18 09:42:54 GMT 53.651127 -3.843195 29,100 280 406 -1088
2019-10-18 09:42:49 GMT 53.651127 -3.843195 29,175 280 407 -1024
2019-10-18 09:42:46 GMT 53.649307 -3.824969 29,225 280 407 -1088
2019-10-18 09:42:43 GMT 53.649307 -3.824969 29,325 280 407 -1024
2019-10-18 09:42:39 GMT 53.648289 -3.814841 29,300 280 407 -1088
2019-10-18 09:42:36 GMT 53.646008 -3.792384 29,375 280 408 -1024
2019-10-18 09:42:33 GMT 53.646008 -3.792384 29,475 280 415 -960
2019-10-18 09:42:30 GMT 53.645168 -3.784063 29,575 280 411 -1024
2019-10-18 09:42:27 GMT 53.644363 -3.776315 30,025 280 415 -960
2019-10-18 09:42:24 GMT 53.643036 -3.763288 29,575 280 413 -1024
2019-10-18 09:42:18 GMT 53.641296 -3.745946 29,725 280 417 -960
2019-10-18 09:42:15 GMT 53.640423 -3.736806 29,725 280 417 -960
2019-10-18 09:42:12 GMT 53.639351 -3.725577 29,800 280 417 -1024
2019-10-18 09:42:08 GMT 53.638142 -3.712975 29,950 282 416 -1024
2019-10-18 09:42:05 GMT 53.636948 -3.701686 30,525 289 428 -1024
2019-10-18 09:42:02 GMT 53.636139 -3.694314 30,025 285 418 -1024
2019-10-18 09:41:59 GMT 53.635025 -3.685521 30,025 284 418 -1024
2019-10-18 09:41:56 GMT 53.633251 -3.673392 30,050 285 419 -1024
2019-10-18 09:41:53 GMT 53.632278 -3.667079 30,150 286 420 -1024
2019-10-18 09:41:50 GMT 53.630787 -3.657882 30,150 287 421 -1024
2019-10-18 09:41:47 GMT 53.626556 -3.635533 30,350 289 423 -1024
2019-10-18 09:41:44 GMT 53.624920 -3.627750 30,325 290 424 -1088
2019-10-18 09:41:41 GMT 53.624920 -3.627750 30,325 290 425 -1088
2019-10-18 09:41:37 GMT 53.622639 -3.616683 30,575 289 427 -1024
2019-10-18 09:41:34 GMT 53.620239 -3.604850 30,475 289 426 -1024
2019-10-18 09:41:31 GMT 53.619324 -3.600377 30,600 289 426 -1024
2019-10-18 09:41:28 GMT 53.616440 -3.586173 30,550 289 427 -1024
2019-10-18 09:41:25 GMT 53.614536 -3.576777 30,625 289 427 -1024
2019-10-18 09:41:22 GMT 53.610580 -3.557308 30,775 289 428 -1088
2019-10-18 09:41:19 GMT 53.609207 -3.550546 30,825 289 428 -1088
2019-10-18 09:41:16 GMT 53.609207 -3.550546 30,750 289 428 -1088
2019-10-18 09:41:13 GMT 53.607227 -3.540910 30,825 289 428 -1088
2019-10-18 09:41:10 GMT 53.604767 -3.528887 30,850 290 428 -1088
2019-10-18 09:41:07 GMT 53.603786 -3.524107 30,900 290 428 -1024
2019-10-18 09:41:04 GMT 53.601597 -3.513444 31,475 290 432 -1088
2019-10-18 09:41:01 GMT 53.599361 -3.502700 31,025 290 428 -1088
2019-10-18 09:40:58 GMT 53.597305 -3.492554 31,075 290 428 -1088
2019-10-18 09:40:55 GMT 53.595497 -3.483797 31,125 290 429 -1152
2019-10-18 09:40:52 GMT 53.593781 -3.475289 31,275 290 429 -1088
2019-10-18 09:40:49 GMT 53.589615 -3.455043 31,300 290 429 -1088
2019-10-18 09:40:46 GMT 53.589615 -3.455043 31,325 290 431 -1152
2019-10-18 09:40:43 GMT 53.587540 -3.444941 31,350 290 430 -1088
2019-10-18 09:40:40 GMT 53.585442 -3.434924 31,400 290 431 -1152
2019-10-18 09:40:37 GMT 53.583710 -3.426557 31,450 290 432 -1088
2019-10-18 09:40:34 GMT 53.581375 -3.415414 31,575 290 434 -1024
2019-10-18 09:40:31 GMT 53.580181 -3.409558 31,550 290 435 -1024
2019-10-18 09:40:28 GMT 53.577995 -3.399218 31,650 290 435 -1024
2019-10-18 09:40:25 GMT 53.575470 -3.387085 31,625 290 436 -1024
2019-10-18 09:40:22 GMT 53.572037 -3.370622 31,750 290 438 -1088
2019-10-18 09:40:19 GMT 53.569942 -3.360443 32,000 290 438 -128
2019-10-18 09:40:16 GMT 53.569942 -3.360443 31,900 290 438 -960
2019-10-18 09:40:13 GMT 53.567566 -3.349053 31,875 290 438 -1024
2019-10-18 09:40:10 GMT 53.565983 -3.341459 31,900 290 438 -960
2019-10-18 09:40:07 GMT 53.564026 -3.332075 31,975 290 438 -512
2019-10-18 09:40:03 GMT 53.561279 -3.319127 32,000 290 439 64
2019-10-18 09:40:00 GMT 53.558907 -3.307773 32,000 290 438 -64
2019-10-18 09:39:57 GMT 53.554688 -3.287580 32,000 290 438 64
2019-10-18 09:39:54 GMT 53.554688 -3.287580 32,000 290 439 64
2019-10-18 09:39:51 GMT 53.552628 -3.277771 32,000 290 440 0
2019-10-18 09:39:48 GMT 53.550934 -3.269845 32,000 290 440 0
2019-10-18 09:39:45 GMT 53.549225 -3.261728 32,000 290 440 0
2019-10-18 09:39:42 GMT 53.547089 -3.251561 32,000 290 440 0
2019-10-18 09:39:39 GMT 53.544525 -3.239554 32,000 290 440 0
2019-10-18 09:39:36 GMT 53.541031 -3.222872 32,000 290 441 64
2019-10-18 09:39:33 GMT 53.541031 -3.222872 32,000 289 442 -64
2019-10-18 09:39:30 GMT 53.538483 -3.210754 32,000 290 441 0
2019-10-18 09:39:27 GMT 53.537155 -3.204320 32,000 290 441 0
2019-10-18 09:39:24 GMT 53.535095 -3.194589 32,000 290 440 0
2019-10-18 09:39:21 GMT 53.532841 -3.183854 32,000 290 441 0
2019-10-18 09:39:18 GMT 53.530418 -3.172221 32,000 290 441 0
2019-10-18 09:39:14 GMT 53.528278 -3.161801 32,000 290 442 0
2019-10-18 09:39:11 GMT 53.525620 -3.148839 32,000 290 442 0
2019-10-18 09:39:08 GMT 53.523926 -3.140677 32,000 289 442 0
2019-10-18 09:39:05 GMT 53.522232 -3.132281 32,000 289 442 0
2019-10-18 09:39:02 GMT 53.519852 -3.120683 32,000 289 442 0
2019-10-18 09:38:58 GMT 53.517059 -3.106620 32,000 289 442 -64
2019-10-18 09:38:55 GMT 53.516006 -3.101362 32,000 289 443 0
2019-10-18 09:38:52 GMT 53.513809 -3.090376 32,000 289 442 64
2019-10-18 09:38:49 GMT 53.511471 -3.078595 32,000 289 442 64
2019-10-18 09:38:46 GMT 53.509781 -3.070051 32,000 289 442 64
2019-10-18 09:38:43 GMT 53.508213 -3.062116 32,000 289 442 -64
2019-10-18 09:38:40 GMT 53.505890 -3.050354 32,000 289 442 -64
2019-10-18 09:38:37 GMT 53.503696 -3.039255 32,000 289 442 -64
2019-10-18 09:38:34 GMT 53.502365 -3.032697 32,000 289 442 0
2019-10-18 09:38:31 GMT 53.500439 -3.022775 32,000 289 442 0
2019-10-18 09:38:28 GMT 53.497833 -3.009769 32,000 293 442 0
2019-10-18 09:38:25 GMT 53.496597 -3.003427 32,000 289 441 0
2019-10-18 09:38:22 GMT 53.494667 -2.993694 32,000 289 441 0
2019-10-18 09:38:19 GMT 53.492386 -2.982396 32,000 289 441 0
2019-10-18 09:38:15 GMT 53.489456 -2.968035 32,000 295 441 64
2019-10-18 09:38:12 GMT 53.487946 -2.960658 32,000 290 441 -64
2019-10-18 09:38:09 GMT 53.485611 -2.949594 32,000 290 441 -64
2019-10-18 09:38:06 GMT 53.481304 -2.931088 32,000 294 442 64
2019-10-18 09:38:03 GMT 53.478790 -2.921394 32,000 294 442 128
2019-10-18 09:37:57 GMT 53.476593 -2.913103 32,000 295 442 -64
2019-10-18 09:37:54 GMT 53.473389 -2.900861 32,000 295 442 -64
2019-10-18 09:37:51 GMT 53.471298 -2.892959 32,000 295 442 -64
2019-10-18 09:37:48 GMT 53.468784 -2.883588 32,000 295 442 -64
2019-10-18 09:37:45 GMT 53.466751 -2.875828 32,000 295 442 0
2019-10-18 09:37:42 GMT 53.463848 -2.865008 32,000 295 441 64
2019-10-18 09:37:39 GMT 53.461708 -2.856930 32,000 295 441 64
2019-10-18 09:37:36 GMT 53.459564 -2.849013 32,000 295 441 64
2019-10-18 09:37:33 GMT 53.455948 -2.835414 32,000 295 441 0
2019-10-18 09:37:30 GMT 53.453606 -2.826637 32,000 295 441 -128
2019-10-18 09:37:27 GMT 53.451599 -2.819170 32,000 295 441 -128
2019-10-18 09:37:24 GMT 53.449139 -2.809915 32,000 295 441 -64
2019-10-18 09:37:21 GMT 53.446838 -2.801357 32,000 295 441 0
2019-10-18 09:37:18 GMT 53.444202 -2.791497 32,000 295 440 128
2019-10-18 09:37:15 GMT 53.441162 -2.780169 32,000 295 440 128
2019-10-18 09:37:12 GMT 53.439037 -2.772190 32,000 295 440 128
2019-10-18 09:37:09 GMT 53.436630 -2.763062 32,000 294 440 64
2019-10-18 09:37:06 GMT 53.434101 -2.753610 32,000 294 440 -64
2019-10-18 09:37:03 GMT 53.431732 -2.744620 32,000 294 440 -128
2019-10-18 09:37:00 GMT 53.429306 -2.735353 32,025 294 438 64
2019-10-18 09:36:57 GMT 53.426880 -2.726022 32,000 294 439 -128
2019-10-18 09:36:54 GMT 53.422348 -2.708679 32,025 294 438 0
2019-10-18 09:36:48 GMT 53.419327 -2.697144 32,000 294 438 64
2019-10-18 09:36:45 GMT 53.416672 -2.686942 32,000 294 439 64
2019-10-18 09:36:42 GMT 53.414154 -2.677447 32,000 294 438 64
2019-10-18 09:36:39 GMT 53.409576 -2.660025 32,000 294 438 0
2019-10-18 09:36:33 GMT 53.404541 -2.641035 32,000 294 438 0
2019-10-18 09:36:30 GMT 53.404541 -2.641035 32,000 294 438 0
2019-10-18 09:36:27 GMT 53.402493 -2.633326 32,000 294 438 0
2019-10-18 09:36:24 GMT 53.399837 -2.623309 32,000 294 437 -64
2019-10-18 09:36:21 GMT 53.397186 -2.613292 32,000 295 438 -64
2019-10-18 09:36:18 GMT 53.394058 -2.601719 32,025 295 436 64
2019-10-18 09:36:15 GMT 53.391972 -2.593904 32,025 295 436 64
2019-10-18 09:36:12 GMT 53.390064 -2.586715 32,025 295 434 0
2019-10-18 09:36:09 GMT 53.387650 -2.577863 32,025 295 433 -64
2019-10-18 09:36:06 GMT 53.385315 -2.569231 32,025 295 431 -64
2019-10-18 09:36:03 GMT 53.379681 -2.548182 32,025 295 429 64
2019-10-18 09:36:00 GMT 53.379681 -2.548182 32,025 295 428 64
2019-10-18 09:35:57 GMT 53.377945 -2.541765 32,025 295 427 64
2019-10-18 09:35:54 GMT 53.372314 -2.520656 32,025 295 426 64
2019-10-18 09:35:51 GMT 53.372314 -2.520656 32,025 295 424 64
2019-10-18 09:35:48 GMT 53.370697 -2.514577 32,000 295 422 128
2019-10-18 09:35:45 GMT 53.365250 -2.494220 32,000 295 421 128
2019-10-18 09:35:42 GMT 53.365250 -2.494220 32,000 295 421 64
2019-10-18 09:35:39 GMT 53.363342 -2.487111 32,000 295 419 -64
2019-10-18 09:35:36 GMT 53.360916 -2.478045 32,000 295 418 -64
2019-10-18 09:35:33 GMT 53.356613 -2.461958 32,000 295 417 64
2019-10-18 09:35:30 GMT 53.354187 -2.452855 32,000 295 416 0
2019-10-18 09:35:27 GMT 53.354187 -2.452855 32,000 295 415 -64
2019-10-18 09:35:24 GMT 53.351807 -2.443909 32,000 295 415 0
2019-10-18 09:35:21 GMT 53.349285 -2.434603 32,000 295 415 0
2019-10-18 09:35:18 GMT 53.346256 -2.423455 32,000 295 415 64
2019-10-18 09:35:15 GMT 53.342628 -2.409883 32,000 295 415 0
2019-10-18 09:35:09 GMT 53.339882 -2.399866 32,000 295 415 0
2019-10-18 09:35:06 GMT 53.336060 -2.385681 32,000 295 414 0
2019-10-18 09:35:03 GMT 53.332664 -2.373128 32,000 295 414 0
2019-10-18 09:35:00 GMT 53.329407 -2.361253 32,000 295 414 0
2019-10-18 09:34:57 GMT 53.329407 -2.361253 32,000 295 414 0
2019-10-18 09:34:54 GMT 53.327312 -2.353417 32,000 295 415 64
2019-10-18 09:34:51 GMT 53.324844 -2.344325 32,000 295 415 128
2019-10-18 09:34:48 GMT 53.322796 -2.336776 32,000 295 415 0
2019-10-18 09:34:45 GMT 53.320515 -2.328132 32,000 295 415 0
2019-10-18 09:34:42 GMT 53.318607 -2.321185 32,000 295 415 -64
2019-10-18 09:34:39 GMT 53.316185 -2.312137 32,000 295 415 -64
2019-10-18 09:34:36 GMT 53.313717 -2.302847 32,000 295 415 -64
2019-10-18 09:34:33 GMT 53.308548 -2.283901 32,000 295 415 0
2019-10-18 09:34:30 GMT 53.308548 -2.283901 32,000 295 415 0
2019-10-18 09:34:27 GMT 53.306625 -2.276681 32,000 295 415 0
2019-10-18 09:34:24 GMT 53.303661 -2.265849 32,000 295 415 0
2019-10-18 09:34:21 GMT 53.302032 -2.259952 32,000 295 415 0
2019-10-18 09:34:18 GMT 53.298542 -2.247108 32,000 295 415 -64
2019-10-18 09:34:15 GMT 53.294678 -2.232971 32,025 296 416 64
2019-10-18 09:34:12 GMT 53.292351 -2.224328 32,000 295 415 0
2019-10-18 09:34:09 GMT 53.292351 -2.224328 32,000 295 414 0
2019-10-18 09:34:06 GMT 53.289326 -2.213260 32,000 295 414 0
2019-10-18 09:34:03 GMT 53.284470 -2.195539 32,000 295 414 0
2019-10-18 09:34:00 GMT 53.284470 -2.195539 32,000 295 414 0
2019-10-18 09:33:57 GMT 53.282017 -2.186602 32,000 295 414 0
2019-10-18 09:33:54 GMT 53.279922 -2.179090 32,000 295 414 0
2019-10-18 09:33:51 GMT 53.278015 -2.172076 32,000 295 415 -64
2019-10-18 09:33:48 GMT 53.275639 -2.163337 32,000 295 415 -64
2019-10-18 09:33:45 GMT 53.273117 -2.154184 32,000 295 415 0
2019-10-18 09:33:42 GMT 53.270325 -2.143982 32,000 295 415 0
2019-10-18 09:33:39 GMT 53.267944 -2.135350 32,000 295 414 0
2019-10-18 09:33:36 GMT 53.265072 -2.125047 32,000 296 418 0
2019-10-18 09:33:33 GMT 53.263138 -2.118007 32,000 295 415 0
2019-10-18 09:33:30 GMT 53.260975 -2.110264 32,000 295 415 64
2019-10-18 09:33:27 GMT 53.258972 -2.103019 32,000 295 415 64
2019-10-18 09:33:24 GMT 53.256504 -2.094107 32,000 296 416 0
2019-10-18 09:33:21 GMT 53.253899 -2.084898 32,000 296 416 0
2019-10-18 09:33:18 GMT 53.251011 -2.074720 32,000 296 416 -64
2019-10-18 09:33:15 GMT 53.248592 -2.066157 32,000 296 417 0
2019-10-18 09:33:12 GMT 53.246403 -2.058482 32,000 296 418 0
2019-10-18 09:33:09 GMT 53.243134 -2.047067 32,000 296 417 0
2019-10-18 09:33:06 GMT 53.241375 -2.040872 32,000 296 417 0
2019-10-18 09:33:03 GMT 53.238815 -2.032148 32,000 296 417 64
2019-10-18 09:33:00 GMT 53.236450 -2.023917 32,000 296 418 64
2019-10-18 09:32:57 GMT 53.231277 -2.005868 32,000 296 418 0
2019-10-18 09:32:54 GMT 53.231277 -2.005868 32,000 296 417 0
2019-10-18 09:32:51 GMT 53.228394 -1.995902 32,000 296 417 0
2019-10-18 09:32:48 GMT 53.226791 -1.990330 32,000 296 418 -128
2019-10-18 09:32:45 GMT 53.223312 -1.978559 32,000 296 418 -64
2019-10-18 09:32:42 GMT 53.221542 -1.972450 32,000 296 416 -128
2019-10-18 09:32:39 GMT 53.218918 -1.963492 32,000 296 418 -128
2019-10-18 09:32:36 GMT 53.216286 -1.954435 32,025 296 416 -64
2019-10-18 09:32:33 GMT 53.213490 -1.944903 32,025 296 416 0
2019-10-18 09:32:30 GMT 53.210884 -1.935936 32,000 296 415 128
2019-10-18 09:32:27 GMT 53.209209 -1.930120 32,000 296 415 192
2019-10-18 09:32:24 GMT 53.205414 -1.917193 32,000 296 415 192
2019-10-18 09:32:21 GMT 53.204315 -1.913348 32,000 296 416 128
2019-10-18 09:32:18 GMT 53.201294 -1.903139 32,000 296 415 128
2019-10-18 09:32:15 GMT 53.198364 -1.893101 31,975 296 416 64
2019-10-18 09:32:12 GMT 53.196304 -1.885960 31,975 296 416 -64
2019-10-18 09:32:09 GMT 53.193283 -1.875445 32,000 296 416 -128
2019-10-18 09:32:06 GMT 53.190914 -1.867353 32,000 296 416 -128
2019-10-18 09:32:03 GMT 53.187881 -1.857160 32,000 297 417 -192
2019-10-18 09:32:00 GMT 53.183441 -1.842957 32,000 299 418 -64
2019-10-18 09:31:57 GMT 53.183441 -1.842957 32,000 301 419 0
2019-10-18 09:31:54 GMT 53.179413 -1.831243 32,000 302 420 64
2019-10-18 09:31:51 GMT 53.177719 -1.826712 32,000 303 420 64
2019-10-18 09:31:48 GMT 53.172684 -1.814000 32,000 306 422 0
2019-10-18 09:31:45 GMT 53.171036 -1.810076 32,000 307 422 0
2019-10-18 09:31:42 GMT 53.163071 -1.792576 32,000 309 423 -64
2019-10-18 09:31:39 GMT 53.163071 -1.792576 32,000 311 423 0
2019-10-18 09:31:36 GMT 53.159908 -1.786328 32,000 312 424 0
2019-10-18 09:31:33 GMT 53.155346 -1.778331 32,000 315 426 -64
2019-10-18 09:31:30 GMT 53.147507 -1.766602 32,000 322 430 64
2019-10-18 09:31:27 GMT 53.147507 -1.766602 32,000 324 431 128
2019-10-18 09:31:24 GMT 53.142609 -1.760324 32,000 325 432 128
2019-10-18 09:31:21 GMT 53.136398 -1.752966 32,000 326 433 64
2019-10-18 09:31:18 GMT 53.132904 -1.748945 32,000 326 433 0
2019-10-18 09:31:15 GMT 53.126816 -1.741882 32,000 326 433 0
2019-10-18 09:31:12 GMT 53.123085 -1.737617 32,000 326 433 -64
2019-10-18 09:31:09 GMT 53.116474 -1.729943 32,000 326 433 -64
2019-10-18 09:31:06 GMT 53.112717 -1.725638 32,000 326 433 -64
2019-10-18 09:31:03 GMT 53.107864 -1.720067 32,000 326 433 0
2019-10-18 09:31:00 GMT 53.103767 -1.715321 32,000 326 433 64
2019-10-18 09:30:57 GMT 53.091942 -1.701625 32,000 326 433 64
2019-10-18 09:30:54 GMT 53.091942 -1.701625 32,000 326 433 0
2019-10-18 09:30:51 GMT 53.088730 -1.697859 32,000 326 434 0
2019-10-18 09:30:48 GMT 53.083191 -1.691589 32,000 326 434 0
2019-10-18 09:30:45 GMT 53.078018 -1.685638 32,000 326 434 0
2019-10-18 09:30:42 GMT 53.069225 -1.675494 32,000 326 433 0
2019-10-18 09:30:36 GMT 53.057632 -1.662074 32,000 326 433 64
2019-10-18 09:30:33 GMT 53.057632 -1.662074 32,000 326 433 0
2019-10-18 09:30:30 GMT 53.050964 -1.654434 32,000 326 433 0
2019-10-18 09:30:26 GMT 53.045948 -1.648655 32,000 326 433 -64
2019-10-18 09:30:23 GMT 53.042633 -1.644821 32,000 326 432 0
2019-10-18 09:30:20 GMT 53.035721 -1.636810 32,000 326 433 0
2019-10-18 09:30:17 GMT 53.031693 -1.632156 32,000 326 433 0
2019-10-18 09:30:14 GMT 53.019653 -1.618271 32,000 326 433 64
2019-10-18 09:30:10 GMT 53.019653 -1.618271 32,000 326 432 0
2019-10-18 09:30:07 GMT 53.016129 -1.614227 32,000 326 432 0
2019-10-18 09:30:04 GMT 53.010803 -1.608163 32,000 326 433 0
2019-10-18 09:30:01 GMT 53.006241 -1.602984 32,000 326 433 0
2019-10-18 09:29:58 GMT 53.000519 -1.596375 32,000 326 432 0
2019-10-18 09:29:55 GMT 52.994648 -1.589722 32,000 326 432 0
2019-10-18 09:29:52 GMT 52.991272 -1.585846 32,000 326 432 -64
2019-10-18 09:29:49 GMT 52.986511 -1.580353 32,000 325 429 960
2019-10-18 09:29:46 GMT 52.982033 -1.575283 32,000 326 432 0
2019-10-18 09:29:43 GMT 52.975235 -1.567435 32,000 326 432 64
2019-10-18 09:29:40 GMT 52.970444 -1.561966 32,000 326 432 0
2019-10-18 09:29:36 GMT 52.965042 -1.555862 32,000 326 432 0
2019-10-18 09:29:33 GMT 52.960667 -1.550799 32,000 326 432 0
2019-10-18 09:29:30 GMT 52.955311 -1.544756 32,000 326 433 0
2019-10-18 09:29:27 GMT 52.945496 -1.533508 32,000 326 432 0
2019-10-18 09:29:24 GMT 52.945496 -1.533508 32,000 326 432 -64
2019-10-18 09:29:21 GMT 52.940460 -1.527806 32,000 326 433 0
2019-10-18 09:29:18 GMT 52.935654 -1.522293 32,000 326 433 -64
2019-10-18 09:29:15 GMT 52.930035 -1.515878 32,000 326 433 0
2019-10-18 09:29:12 GMT 52.925518 -1.510777 32,000 326 433 0
2019-10-18 09:29:09 GMT 52.920090 -1.504593 32,000 326 433 -64
2019-10-18 09:29:06 GMT 52.915325 -1.499163 32,000 326 432 -64
2019-10-18 09:29:03 GMT 52.911926 -1.495318 32,000 326 432 -64
2019-10-18 09:29:00 GMT 52.905075 -1.487427 32,000 326 431 320
2019-10-18 09:28:57 GMT 52.900452 -1.482086 31,900 325 429 960
2019-10-18 09:28:54 GMT 52.894226 -1.474838 31,950 325 429 960
2019-10-18 09:28:51 GMT 52.889328 -1.469193 31,900 325 428 960
2019-10-18 09:28:48 GMT 52.886032 -1.465302 31,825 325 428 960
2019-10-18 09:28:42 GMT 52.875988 -1.453570 31,775 325 427 896
2019-10-18 09:28:39 GMT 52.869781 -1.446304 31,700 325 424 832
2019-10-18 09:28:36 GMT 52.868042 -1.444244 31,700 325 426 896
2019-10-18 09:28:33 GMT 52.860764 -1.435756 31,625 325 423 896
2019-10-18 09:28:30 GMT 52.855820 -1.429977 31,575 325 425 896
2019-10-18 09:28:27 GMT 52.851883 -1.425400 31,475 325 423 832
2019-10-18 09:28:24 GMT 52.847260 -1.420059 31,450 325 423 832
2019-10-18 09:28:21 GMT 52.841492 -1.413345 31,425 326 425 896
2019-10-18 09:28:18 GMT 52.837395 -1.408604 31,350 326 427 960
2019-10-18 09:28:12 GMT 52.827015 -1.396676 31,125 325 428 896
2019-10-18 09:28:09 GMT 52.821892 -1.390712 31,275 326 427 960
2019-10-18 09:28:06 GMT 52.819332 -1.387809 31,250 326 427 960
2019-10-18 09:28:03 GMT 52.813282 -1.380824 31,225 326 427 896
2019-10-18 09:28:00 GMT 52.808121 -1.374893 31,100 325 428 896
2019-10-18 09:27:57 GMT 52.803177 -1.369171 31,075 325 428 896
2019-10-18 09:27:51 GMT 52.792145 -1.356354 30,975 325 429 1216
2019-10-18 09:27:47 GMT 52.788700 -1.352339 30,950 325 428 1152
2019-10-18 09:27:44 GMT 52.781891 -1.344376 30,825 325 428 1600
2019-10-18 09:27:38 GMT 52.773972 -1.334991 30,700 325 428 1728
2019-10-18 09:27:35 GMT 52.767986 -1.328012 30,475 325 428 1728
2019-10-18 09:27:32 GMT 52.763100 -1.322205 30,475 325 428 1728
2019-10-18 09:27:29 GMT 52.758179 -1.316528 30,375 325 428 1344
2019-10-18 09:27:26 GMT 52.754066 -1.311689 30,200 325 428 1472
2019-10-18 09:27:23 GMT 52.749828 -1.306745 30,175 325 427 1728
2019-10-18 09:27:20 GMT 52.743073 -1.298904 28,975 326 426 1472
2019-10-18 09:27:17 GMT 52.738083 -1.293106 30,150 325 427 1792
2019-10-18 09:27:14 GMT 52.733322 -1.287537 30,100 325 427 1792
2019-10-18 09:27:11 GMT 52.730209 -1.283951 30,050 325 427 1856
2019-10-18 09:27:08 GMT 52.724598 -1.277475 29,800 326 427 1408
2019-10-18 09:27:05 GMT 52.719040 -1.271133 29,800 326 426 960
2019-10-18 09:27:02 GMT 52.714172 -1.265703 29,775 326 426 1024
2019-10-18 09:26:59 GMT 52.709976 -1.260910 29,700 326 425 1152
2019-10-18 09:26:56 GMT 52.705326 -1.255737 29,650 326 424 1216
2019-10-18 09:26:53 GMT 52.700775 -1.250534 29,625 326 423 1152
2019-10-18 09:26:50 GMT 52.697296 -1.246567 29,425 326 423 1280
2019-10-18 09:26:47 GMT 52.692387 -1.240906 29,425 325 421 1792
2019-10-18 09:26:44 GMT 52.685944 -1.233521 29,350 325 421 2048
2019-10-18 09:26:41 GMT 52.681725 -1.228585 29,175 325 421 2048
2019-10-18 09:26:38 GMT 52.676929 -1.223014 29,200 325 421 2048
2019-10-18 09:26:35 GMT 52.671799 -1.217117 29,050 325 422 1984
2019-10-18 09:26:32 GMT 52.667175 -1.211777 28,975 326 422 1792
2019-10-18 09:26:29 GMT 52.661636 -1.205368 28,875 327 416 1664
2019-10-18 09:26:26 GMT 52.651325 -1.193743 28,725 326 417 1216
2019-10-18 09:26:23 GMT 52.651325 -1.193743 28,800 326 420 896
2019-10-18 09:26:20 GMT 52.647926 -1.189898 28,750 326 418 1024
2019-10-18 09:26:17 GMT 52.643505 -1.184954 28,650 327 416 1600
2019-10-18 09:26:14 GMT 52.638802 -1.179696 28,650 327 417 1408
2019-10-18 09:26:11 GMT 52.633072 -1.173401 28,525 326 409 1728
2019-10-18 09:26:08 GMT 52.627304 -1.167068 28,525 327 416 1664
2019-10-18 09:26:04 GMT 52.622417 -1.161804 28,400 327 416 1728
2019-10-18 09:26:01 GMT 52.617599 -1.156540 28,300 327 416 1856
2019-10-18 09:25:58 GMT 52.612289 -1.150742 28,150 327 415 1856
2019-10-18 09:25:55 GMT 52.606590 -1.144540 28,075 327 415 1792
2019-10-18 09:25:52 GMT 52.603500 -1.141205 28,025 327 415 1728
2019-10-18 09:25:49 GMT 52.597466 -1.134574 27,975 327 415 1664
2019-10-18 09:25:46 GMT 52.594162 -1.130981 27,825 327 414 1728
2019-10-18 09:25:43 GMT 52.583172 -1.118879 27,675 327 414 1792
2019-10-18 09:25:40 GMT 52.583172 -1.118879 27,625 327 413 1536
2019-10-18 09:25:37 GMT 52.578892 -1.114171 27,575 327 413 1536
2019-10-18 09:25:34 GMT 52.575867 -1.110875 27,500 326 411 1472
2019-10-18 09:25:31 GMT 52.569767 -1.104126 27,450 326 411 1472
2019-10-18 09:25:28 GMT 52.564087 -1.097848 27,275 326 411 1536
2019-10-18 09:25:25 GMT 52.558960 -1.092072 27,250 326 409 1664
2019-10-18 09:25:22 GMT 52.555008 -1.087725 27,200 326 409 1728
2019-10-18 09:25:19 GMT 52.551285 -1.083566 27,100 326 408 1664
2019-10-18 09:25:16 GMT 52.546280 -1.078033 27,025 326 408 1600
2019-10-18 09:25:13 GMT 52.540855 -1.071952 26,925 326 407 1536
2019-10-18 09:25:10 GMT 52.536247 -1.066772 26,725 326 379 2176
2019-10-18 09:25:07 GMT 52.532944 -1.063084 26,725 326 406 1792
2019-10-18 09:25:04 GMT 52.527637 -1.057199 26,700 326 405 1792
2019-10-18 09:25:01 GMT 52.522568 -1.051636 26,675 326 405 1728
2019-10-18 09:24:58 GMT 52.517899 -1.046448 26,525 326 404 1920
2019-10-18 09:24:55 GMT 52.513092 -1.041183 26,425 326 403 1792
2019-10-18 09:24:52 GMT 52.508102 -1.035690 26,025 326 403 1600
2019-10-18 09:24:49 GMT 52.504269 -1.031381 26,000 326 401 1536
2019-10-18 09:24:46 GMT 52.499889 -1.026515 26,200 326 401 1536
2019-10-18 09:24:43 GMT 52.495102 -1.021194 26,075 326 400 1664
2019-10-18 09:24:40 GMT 52.486084 -1.011200 25,975 326 399 1728
2019-10-18 09:24:37 GMT 52.486084 -1.011200 25,900 326 399 1792
2019-10-18 09:24:34 GMT 52.480453 -1.004944 25,800 326 398 1792
2019-10-18 09:24:31 GMT 52.474937 -0.998814 25,725 326 398 1792
2019-10-18 09:24:28 GMT 52.471619 -0.995178 25,650 327 397 1728
2019-10-18 09:24:25 GMT 52.467770 -0.990888 25,575 327 397 1792
2019-10-18 09:24:22 GMT 52.463058 -0.985794 25,375 327 395 1920
2019-10-18 09:24:19 GMT 52.457855 -0.980059 25,350 327 392 1984
2019-10-18 09:24:16 GMT 52.453480 -0.975272 25,125 327 394 1920
2019-10-18 09:24:13 GMT 52.449600 -0.971069 25,250 327 395 1920
2019-10-18 09:24:10 GMT 52.445705 -0.966797 25,100 327 393 1984
2019-10-18 09:24:07 GMT 52.439884 -0.960519 25,050 327 394 1920
2019-10-18 09:24:04 GMT 52.435184 -0.955418 24,925 327 393 1984
2019-10-18 09:24:01 GMT 52.431366 -0.951338 24,400 327 391 2048
2019-10-18 09:23:58 GMT 52.426849 -0.946472 24,700 327 392 2048
2019-10-18 09:23:55 GMT 52.417168 -0.936035 24,500 327 391 2048
2019-10-18 09:23:49 GMT 52.412201 -0.930710 24,325 327 391 2176
2019-10-18 09:23:46 GMT 52.407532 -0.925674 24,325 327 391 2176
2019-10-18 09:23:42 GMT 52.403275 -0.921097 24,150 327 389 2112
2019-10-18 09:23:39 GMT 52.393936 -0.911026 23,850 327 388 2176
2019-10-18 09:23:36 GMT 52.386490 -0.902919 23,875 327 388 2112
2019-10-18 09:23:33 GMT 52.386490 -0.902919 23,775 327 388 2048
2019-10-18 09:23:30 GMT 52.385139 -0.901428 23,750 327 388 2048
2019-10-18 09:23:27 GMT 52.378391 -0.894130 23,575 327 387 2112
2019-10-18 09:23:24 GMT 52.374619 -0.890050 23,300 327 384 2176
2019-10-18 09:23:21 GMT 52.370243 -0.885184 23,375 327 361 2560
2019-10-18 09:23:18 GMT 52.366516 -0.881195 23,325 327 385 2112
2019-10-18 09:23:15 GMT 52.360466 -0.874590 23,150 327 384 2176
2019-10-18 09:23:12 GMT 52.355953 -0.869646 22,975 327 384 2176
2019-10-18 09:23:09 GMT 52.353973 -0.867462 22,725 327 382 2304
2019-10-18 09:23:06 GMT 52.348755 -0.861816 22,775 327 382 2304
2019-10-18 09:23:03 GMT 52.344128 -0.856698 22,725 327 381 2432
2019-10-18 09:23:00 GMT 52.339333 -0.851440 22,550 327 381 2368
2019-10-18 09:22:57 GMT 52.335796 -0.847595 22,475 326 380 2176
2019-10-18 09:22:54 GMT 52.330078 -0.841293 22,400 326 373 2112
2019-10-18 09:22:51 GMT 52.327229 -0.838100 22,275 326 379 2176
2019-10-18 09:22:48 GMT 52.322716 -0.833078 21,750 326 379 2240
2019-10-18 09:22:45 GMT 52.318336 -0.828212 21,950 326 379 2496
2019-10-18 09:22:42 GMT 52.312843 -0.822013 21,950 326 378 2432
2019-10-18 09:22:39 GMT 52.308701 -0.817383 21,775 326 376 2304
2019-10-18 09:22:36 GMT 52.305771 -0.814133 21,725 326 376 2240
2019-10-18 09:22:33 GMT 52.300598 -0.808334 21,100 326 376 2304
2019-10-18 09:22:30 GMT 52.295666 -0.802787 21,375 326 375 2432
2019-10-18 09:22:27 GMT 52.292450 -0.799255 21,225 326 375 2368
2019-10-18 09:22:24 GMT 52.288311 -0.794625 21,100 326 373 2176
2019-10-18 09:22:21 GMT 52.284077 -0.789917 21,100 326 373 2176
2019-10-18 09:22:18 GMT 52.278629 -0.783953 20,925 327 372 2496
2019-10-18 09:22:12 GMT 52.270016 -0.774458 20,775 326 371 2432
2019-10-18 09:22:09 GMT 52.265827 -0.769828 20,600 326 370 2304
2019-10-18 09:22:06 GMT 52.260681 -0.764160 20,500 327 370 2112
2019-10-18 09:22:03 GMT 52.258667 -0.761948 20,400 327 367 2304
2019-10-18 09:22:00 GMT 52.252991 -0.755768 20,025 327 366 2368
2019-10-18 09:21:56 GMT 52.248047 -0.750427 20,150 327 367 2432
2019-10-18 09:21:53 GMT 52.244659 -0.746765 20,025 327 366 2368
2019-10-18 09:21:50 GMT 52.239075 -0.740662 19,875 327 364 2304
2019-10-18 09:21:47 GMT 52.236080 -0.737497 19,875 327 364 2304
2019-10-18 09:21:44 GMT 52.231842 -0.732956 19,450 327 361 2560
2019-10-18 09:21:41 GMT 52.226395 -0.727081 19,050 327 360 2880
2019-10-18 09:21:38 GMT 52.222256 -0.722665 19,275 327 361 2496
2019-10-18 09:21:35 GMT 52.218575 -0.718663 19,325 327 361 3072
2019-10-18 09:21:32 GMT 52.214127 -0.713806 19,125 327 360 2944
2019-10-18 09:21:29 GMT 52.210754 -0.710188 18,625 322 359 2368
2019-10-18 09:21:26 GMT 52.206665 -0.705643 18,775 325 360 2944
2019-10-18 09:21:23 GMT 52.202843 -0.701399 18,650 324 360 2752
2019-10-18 09:21:20 GMT 52.198883 -0.696564 18,550 321 359 2176
2019-10-18 09:21:17 GMT 52.194836 -0.690962 18,500 319 357 2048
2019-10-18 09:21:14 GMT 52.190048 -0.683212 18,425 315 355 1600
2019-10-18 09:21:11 GMT 52.187851 -0.678940 18,300 307 350 1024
2019-10-18 09:21:08 GMT 52.185059 -0.672834 18,250 305 349 960
2019-10-18 09:21:05 GMT 52.182499 -0.666399 18,225 301 346 1024
2019-10-18 09:21:02 GMT 52.180264 -0.659807 18,175 298 346 960
2019-10-18 09:20:59 GMT 52.174911 -0.641759 18,075 296 343 960
2019-10-18 09:20:56 GMT 52.174911 -0.641759 18,050 296 343 1024
2019-10-18 09:20:53 GMT 52.173523 -0.636902 18,000 296 342 1472
2019-10-18 09:20:50 GMT 52.171978 -0.631714 17,900 296 342 1792
2019-10-18 09:20:47 GMT 52.169186 -0.622062 17,875 296 342 1920
2019-10-18 09:20:44 GMT 52.167435 -0.616150 17,625 296 341 1920
2019-10-18 09:20:41 GMT 52.165375 -0.609283 17,625 296 341 1920
2019-10-18 09:20:38 GMT 52.163315 -0.602188 17,550 296 341 1920
2019-10-18 09:20:35 GMT 52.161758 -0.597000 17,450 296 341 2048
2019-10-18 09:20:32 GMT 52.159607 -0.589752 17,375 296 340 2048
2019-10-18 09:20:29 GMT 52.156860 -0.580444 17,300 296 339 1984
2019-10-18 09:20:26 GMT 52.155487 -0.575790 17,225 296 339 1984
2019-10-18 09:20:23 GMT 52.153126 -0.567915 17,000 296 336 1920
2019-10-18 09:20:20 GMT 52.148655 -0.552848 16,775 296 333 1920
2019-10-18 09:20:17 GMT 52.148655 -0.552848 16,400 296 331 1984
2019-10-18 09:20:14 GMT 52.147202 -0.547943 16,800 296 334 1856
2019-10-18 09:20:11 GMT 52.143631 -0.535812 16,650 296 333 1920
2019-10-18 09:20:05 GMT 52.141571 -0.529022 16,450 296 331 1984
2019-10-18 09:20:02 GMT 52.138786 -0.519575 16,400 296 331 2048
2019-10-18 09:19:59 GMT 52.136642 -0.512277 16,325 296 331 2112
2019-10-18 09:19:55 GMT 52.133331 -0.500946 16,050 296 329 2432
2019-10-18 09:19:49 GMT 52.130539 -0.491486 15,725 296 326 3136
2019-10-18 09:19:45 GMT 52.127937 -0.482614 15,725 296 326 3008
2019-10-18 09:19:42 GMT 52.126556 -0.477982 15,600 296 327 2880
2019-10-18 09:19:39 GMT 52.121613 -0.460968 15,100 296 329 1088
2019-10-18 09:19:36 GMT 52.121613 -0.460968 15,250 296 329 1920
2019-10-18 09:19:33 GMT 52.120605 -0.457535 15,225 296 329 960
2019-10-18 09:19:30 GMT 52.117905 -0.448380 15,125 296 329 960
2019-10-18 09:19:27 GMT 52.114975 -0.438309 15,075 296 329 512
2019-10-18 09:19:24 GMT 52.112183 -0.428696 15,000 296 329 320
2019-10-18 09:19:21 GMT 52.112183 -0.428696 15,000 296 330 192
2019-10-18 09:19:18 GMT 52.110809 -0.423915 15,000 296 330 256
2019-10-18 09:19:15 GMT 52.108852 -0.417324 15,000 296 330 0
2019-10-18 09:19:12 GMT 52.103683 -0.399745 15,000 296 330 0
2019-10-18 09:19:08 GMT 52.103683 -0.399745 15,000 296 330 0
2019-10-18 09:19:05 GMT 52.101639 -0.392840 15,000 296 329 960
2019-10-18 09:19:02 GMT 52.100098 -0.387497 15,000 296 330 0
2019-10-18 09:18:59 GMT 52.097912 -0.380127 15,000 296 330 -64
2019-10-18 09:18:56 GMT 52.094376 -0.368199 15,000 296 330 64
2019-10-18 09:18:50 GMT 52.090714 -0.355835 15,000 297 326 896
2019-10-18 09:18:44 GMT 52.087719 -0.345677 14,925 296 330 960
2019-10-18 09:18:41 GMT 52.086456 -0.341339 14,875 296 330 1024
2019-10-18 09:18:38 GMT 52.084396 -0.334473 14,350 296 330 960
2019-10-18 09:18:35 GMT 52.081787 -0.325623 14,750 296 329 960
2019-10-18 09:18:32 GMT 52.080132 -0.320016 14,725 296 329 960
2019-10-18 09:18:28 GMT 52.075382 -0.303929 14,600 296 328 960
2019-10-18 09:18:22 GMT 52.073318 -0.297089 14,475 297 323 1984
2019-10-18 09:18:19 GMT 52.071285 -0.290274 14,500 296 327 832
2019-10-18 09:18:16 GMT 52.069427 -0.284042 14,500 296 326 832
2019-10-18 09:18:13 GMT 52.067745 -0.278425 14,425 296 326 896
2019-10-18 09:18:10 GMT 52.065445 -0.270767 14,400 297 326 896
2019-10-18 09:18:07 GMT 52.063187 -0.263123 14,325 297 326 960
2019-10-18 09:18:03 GMT 52.061096 -0.256271 13,625 297 320 2048
2019-10-18 09:18:00 GMT 52.059414 -0.250645 14,250 297 325 1088
2019-10-18 09:17:57 GMT 52.057434 -0.244064 14,075 297 323 1984
2019-10-18 09:17:54 GMT 52.055225 -0.236755 13,825 297 323 1984
2019-10-18 09:17:51 GMT 52.052292 -0.227103 14,000 297 323 2048
2019-10-18 09:17:48 GMT 52.051025 -0.223007 13,850 297 310 896
2019-10-18 09:17:45 GMT 52.047318 -0.210800 13,700 297 320 2048
2019-10-18 09:17:42 GMT 52.047318 -0.210800 13,625 297 320 2048
2019-10-18 09:17:39 GMT 52.045395 -0.204544 13,500 297 313 896
2019-10-18 09:17:36 GMT 52.042831 -0.196075 13,125 297 316 2752
2019-10-18 09:17:33 GMT 52.041550 -0.192032 13,375 297 317 2368
2019-10-18 09:17:30 GMT 52.039536 -0.185355 13,300 297 317 2368
2019-10-18 09:17:27 GMT 52.035187 -0.171204 13,025 297 316 2624
2019-10-18 09:17:24 GMT 52.035187 -0.171204 12,950 297 315 2368
2019-10-18 09:17:21 GMT 52.033810 -0.166835 12,875 297 315 2176
2019-10-18 09:17:18 GMT 52.031715 -0.160008 12,750 297 314 1792
2019-10-18 09:17:15 GMT 52.029877 -0.153961 12,675 297 314 1536
2019-10-18 09:17:12 GMT 52.027294 -0.145569 12,600 297 313 832
2019-10-18 09:17:09 GMT 52.025391 -0.139465 12,550 297 313 832
2019-10-18 09:17:05 GMT 52.021336 -0.126343 12,400 297 310 1088
2019-10-18 09:17:02 GMT 52.019211 -0.119324 12,425 297 309 1344
2019-10-18 09:16:59 GMT 52.019211 -0.119324 12,400 297 309 1152
2019-10-18 09:16:56 GMT 52.017059 -0.112457 12,325 297 309 1536
2019-10-18 09:16:53 GMT 52.015656 -0.107901 12,300 297 308 1920
2019-10-18 09:16:50 GMT 52.013718 -0.101471 12,250 297 308 1984
2019-10-18 09:16:47 GMT 52.011246 -0.093536 11,950 297 306 2048
2019-10-18 09:16:44 GMT 52.009510 -0.087812 11,950 297 305 2112
2019-10-18 09:16:40 GMT 52.006809 -0.079180 11,800 297 304 2176
2019-10-18 09:16:36 GMT 52.004425 -0.071335 11,675 297 301 2240
2019-10-18 09:16:33 GMT 52.003227 -0.067487 11,600 297 301 2240
2019-10-18 09:16:30 GMT 52.000805 -0.059640 11,450 297 299 2304
2019-10-18 09:16:27 GMT 51.999409 -0.055167 11,275 297 296 2496
2019-10-18 09:16:23 GMT 51.996826 -0.046768 11,225 297 296 2496
2019-10-18 09:16:20 GMT 51.995079 -0.041277 11,125 297 295 2560
2019-10-18 09:16:17 GMT 51.993301 -0.035553 10,900 298 286 1024
2019-10-18 09:16:14 GMT 51.991241 -0.028992 10,900 298 259 3584
2019-10-18 09:16:11 GMT 51.987717 -0.017929 10,775 298 275 1088
2019-10-18 09:16:08 GMT 51.987717 -0.017929 10,825 298 275 1088
2019-10-18 09:16:05 GMT 51.985657 -0.011520 10,750 298 270 1280
2019-10-18 09:16:01 GMT 51.983780 -0.005646 10,600 298 261 3136
2019-10-18 09:15:58 GMT 51.981953 -0.000078 10,275 298 259 3584
2019-10-18 09:15:55 GMT 51.980392 0.004730 10,375 298 259 3264
2019-10-18 09:15:52 GMT 51.978058 0.011902 10,200 298 259 3648
2019-10-18 09:15:49 GMT 51.974735 0.022051 9,900 298 258 3520
2019-10-18 09:15:46 GMT 51.974735 0.022051 9,775 298 258 3456
2019-10-18 09:15:43 GMT 51.973339 0.026367 9,575 299 257 3392
2019-10-18 09:15:39 GMT 51.971100 0.033112 9,400 299 255 3328
2019-10-18 09:15:35 GMT 51.969086 0.039139 9,125 300 254 3328
2019-10-18 09:15:32 GMT 51.967255 0.044479 9,025 302 254 3328
2019-10-18 09:15:29 GMT 51.965191 0.049909 8,900 304 255 3456
2019-10-18 09:15:26 GMT 51.961121 0.058365 8,575 314 259 3520
2019-10-18 09:15:20 GMT 51.957138 0.064163 8,250 328 265 3328
2019-10-18 09:15:17 GMT 51.954624 0.067017 8,125 326 265 3392
2019-10-18 09:15:14 GMT 51.952438 0.069135 7,925 333 268 3200
2019-10-18 09:15:11 GMT 51.949924 0.071254 7,900 337 270 3136
2019-10-18 09:15:08 GMT 51.945511 0.074005 7,700 346 272 3072
2019-10-18 09:15:05 GMT 51.941730 0.075649 7,450 350 272 3264
2019-10-18 09:15:02 GMT 51.937634 0.076983 7,350 351 272 3264
2019-10-18 09:14:59 GMT 51.935165 0.077689 7,250 351 270 3328
2019-10-18 09:14:56 GMT 51.930603 0.078945 6,975 351 269 3456
2019-10-18 09:14:53 GMT 51.926880 0.079886 6,850 351 268 3776
2019-10-18 09:14:50 GMT 51.921528 0.081299 6,550 351 267 4224
2019-10-18 09:14:47 GMT 51.919830 0.081711 6,325 351 267 4352
2019-10-18 09:14:44 GMT 51.917057 0.082397 6,225 351 267 4480
2019-10-18 09:14:41 GMT 51.913055 0.083496 6,050 351 268 4288
2019-10-18 09:14:38 GMT 51.905418 0.085458 5,675 351 266 2688
2019-10-18 09:14:32 GMT 51.901154 0.086670 5,575 351 266 2816
2019-10-18 09:14:29 GMT 51.898224 0.087509 5,500 350 266 2624
2019-10-18 09:14:26 GMT 51.893780 0.088832 5,125 348 251 1216
2019-10-18 09:14:23 GMT 51.890305 0.090043 5,175 349 262 2368
2019-10-18 09:14:20 GMT 51.886322 0.091454 5,000 348 257 1472
2019-10-18 09:14:14 GMT 51.880329 0.093613 4,875 348 251 1216
2019-10-18 09:14:11 GMT 51.876846 0.094943 4,775 348 246 1280
2019-10-18 09:14:08 GMT 51.874043 0.095901 4,775 348 240 1472
2019-10-18 09:14:05 GMT 51.869110 0.097689 4,650 348 237 1536
2019-10-18 09:14:02 GMT 51.865860 0.098803 4,550 349 233 1536
2019-10-18 09:13:59 GMT 51.863708 0.099564 4,550 349 233 1536
2019-10-18 09:13:55 GMT 51.859634 0.100955 4,475 349 233 1536
2019-10-18 09:13:52 GMT 51.855835 0.102217 4,375 347 231 1024
2019-10-18 09:13:49 GMT 51.853226 0.103034 4,250 330 220 1088
2019-10-18 09:13:42 GMT 51.846855 0.106049 4,225 337 224 1024
2019-10-18 09:13:38 GMT 51.842743 0.109492 4,075 324 217 1088
2019-10-18 09:13:33 GMT 51.838898 0.114540 3,975 307 208 1024
2019-10-18 09:13:29 GMT 51.836288 0.119629 3,850 300 204 1024
2019-10-18 09:13:23 GMT 51.833679 0.127679 3,900 261 192 960
2019-10-18 09:13:19 GMT 51.832626 0.133840 3,775 276 196 960
2019-10-18 09:13:16 GMT 51.832260 0.138146 3,750 272 195 1024
2019-10-18 09:13:12 GMT 51.832260 0.142896 3,675 226 192 1280
2019-10-18 09:13:09 GMT 51.832565 0.147400 3,675 226 192 1280
2019-10-18 09:13:06 GMT 51.833496 0.152893 3,550 244 191 1024
2019-10-18 09:13:03 GMT 51.834335 0.156021 3,525 242 192 1088
2019-10-18 09:13:00 GMT 51.835922 0.160341 2,750 231 192 1216
2019-10-18 09:12:57 GMT 51.839035 0.166245 3,375 225 191 1344
2019-10-18 09:12:54 GMT 51.839035 0.166245 3,325 224 184 2304
2019-10-18 09:12:51 GMT 51.840500 0.168581 3,275 224 188 2176
2019-10-18 09:12:48 GMT 51.842834 0.172144 2,750 224 186 2304
2019-10-18 09:12:45 GMT 51.844437 0.174594 3,150 224 187 2304
2019-10-18 09:12:42 GMT 51.846344 0.177460 2,950 224 186 2304
2019-10-18 09:12:39 GMT 51.848534 0.180740 2,850 223 181 1856
2019-10-18 09:12:34 GMT 51.852036 0.186025 2,650 223 177 1408
2019-10-18 09:12:31 GMT 51.853279 0.187912 2,650 223 177 1408
2019-10-18 09:12:24 GMT 51.857346 0.193968 2,475 223 169 1088
2019-10-18 09:12:21 GMT 51.859287 0.196838 2,425 223 162 640
2019-10-18 09:12:18 GMT 51.860596 0.198719 2,425 222 145 2176
2019-10-18 09:12:15 GMT 51.862518 0.201466 2,350 221 150 1408
2019-10-18 09:12:12 GMT 51.864082 0.203705 2,300 221 148 1664
2019-10-18 09:12:08 GMT 51.866314 0.206680 2,225 224 142 2816
2019-10-18 09:12:04 GMT 51.868195 0.209408 2,075 224 142 2112
2019-10-18 09:12:00 GMT 51.869946 0.212173 1,825 224 145 2944
2019-10-18 09:11:53 GMT 51.873623 0.217743 1,475 224 148 2880
2019-10-18 09:11:50 GMT 51.875114 0.220032 1,375 224 149 2624
2019-10-18 09:11:40 GMT 51.880096 0.227509 925 223 153 2560
2019-10-18 09:11:27 GMT 51.886379 0.236893 750 223 111 -64
2019-10-18 09:11:18 GMT 51.890198 0.242615 750 223 104 -64
2019-10-18 09:11:06 GMT 51.893406 0.247415 0 222 54
2019-10-18 09:10:58 GMT 51.894539 0.249176 0 227 23
2019-10-18 09:10:48 GMT 51.894939 0.250416 0 267 16
2019-10-18 09:10:00 GMT 51.894768 0.252438 0 289 6
2019-10-18 09:09:56 GMT 51.894699 0.252568 0 289 6
2019-10-18 09:09:42 GMT 51.894447 0.252991 0 289 6
2019-10-18 09:09:29 GMT 51.894211 0.253411 0 292 5
2019-10-18 09:09:25 GMT 51.894173 0.253544 0 281 6
2019-10-18 09:09:14 GMT 51.894165 0.254020 0 286 9
2019-10-18 09:09:04 GMT 51.894127 0.254612 0 286 9
2019-10-18 09:08:54 GMT 51.893955 0.255241 0 300 11

Making use of Plane Finder data

You are free to use the raw flight data, aircraft information and images provided in this report for your own purposes provided the data is correctly attributed to Plane Finder. We ask that you please credit Plane Finder and link to planefinder.net in close proximity to the content.

Optionally one of the following logos (no smaller then 150x24px) can be used and must link to planefinder.net

Embedding the Plane Finder map

You are welcome to embed the Plane Finder playback map on your website to offer visitors a more interactive experience. We suggest using the following HTML code:

<iframe src="//planefinder.net/data/report/FR2371-EI-DWR-7700-squawk-2019-10-18/map" width="800" height="600" seamless="seamless"></iframe>

Where our data comes from

Plane Finder has a global network of data feeds and antenna radars that receive data broadcast directly from aircraft. The primary technologies used are ADS-B and MLAT. We also show feeds from the FAA and a FLARM glider feed.

Click here to find out more about the Plane Finder network.

How we collect our data